Nearby METAR Reports

 

KIAG - Niagara Falls, New York, USA
Distance from station: W 12mi, 20km
Updated: 05/25/2018 11:53pm
Clear
Clear
 Wind from SSW
Wind: SSW 12 mph , 19 km/h
Temperature: 64°F , 18°C
Dew Point: 48°F , 9°C
Humidity: 56%
Barometer: 1009.5 hPa
Clouds: Clear
Visibility: 10 miles , 16 km
2018/05/26 03:53 KIAG 260353Z AUTO 21010KT 10SM CLR 18/09 A2981 RMK AO2 SLP089 T01830089
KBUF - Buffalo/Cheektow, New York, USA
Distance from station: S 13mi, 21km
Updated: 05/25/2018 11:54pm
Clear
Clear
 Wind from S
Wind: S 3 mph , 6 km/h
Temperature: 64°F , 18°C
Dew Point: 48°F , 9°C
Humidity: 56%
Barometer: 1009.8 hPa
Clouds: Clear
Visibility: 10 miles , 16 km
2018/05/26 03:54 KBUF 260354Z 19003KT 10SM CLR 18/09 A2982 RMK AO2 SLP096 T01780094
 
KROC - Rochester, New York, USA
Distance from station: E 51mi, 82km
Updated: 05/25/2018 11:54pm
Clear
Clear
 Wind from SW
Wind: SW 12 mph , 19 km/h
Temperature: 64°F , 18°C
Dew Point: 52°F , 11°C
Humidity: 64%
Barometer: 1009.1 hPa
Clouds: Clear
Visibility: 10 miles , 16 km
2018/05/26 03:54 KROC 260354Z 23010KT 10SM CLR 18/11 A2980 RMK AO2 SLP092 T01830111
CYSN - St. Catharines A, Ontario, Canada
Distance from station: WNW 25mi, 40km
Updated: 05/25/2018 9:00pm
NOT Current
Few Clouds
Few Clouds
 Wind from SSW
Wind: SSW 13 mph , 20 km/h
Temperature: 73°F , 23°C
Dew Point: 46°F , 8°C
Humidity: 38%
Barometer: 1008.5 hPa
Clouds: Few Clouds
Visibility: 15 miles , 24 km
Cloud details: Few Clouds 25000 ft
2018/05/26 01:00 CYSN 260100Z 21011KT 15SM FEW250 23/08 A2978 RMK CI1 LAST STFD OBS / NEXT 261100 UTC SLP086 DENSITY ALT 1500FT
 
KOLE - Olean, New York, USA
Distance from station: SSE 63mi, 102km
Updated: 05/25/2018 11:55pm
Clear
Clear
 Wind from calm
Wind: Calm
Temperature: 63°F , 17°C
Dew Point: 50°F , 10°C
Humidity: 64%
Barometer: 1012.9 hPa
Clouds: Clear
Visibility: 10 miles , 16 km
2018/05/26 03:55 KOLE 260355Z AUTO 00000KT 10SM CLR 17/10 A2991 RMK AO2
KJHW - Jamestown, New York, USA
Distance from station: SSW 74mi, 119km
Updated: 05/25/2018 11:56pm
Clear
Clear
 Wind from SSW
Wind: SSW 3 mph , 6 km/h
Temperature: 64°F , 18°C
Dew Point: 52°F , 11°C
Humidity: 64%
Barometer: 1012.5 hPa
Clouds: Clear
Visibility: 10 miles , 16 km
2018/05/26 03:56 KJHW 260356Z AUTO 21003KT 10SM CLR 18/11 A2990 RMK AO2 SLP120 T01780106
 
CWWZ - Port Weller (mar, Ontario, Canada
Distance from station: WNW 28mi, 45km
Updated: 05/26/2018 12:00am

 Wind from SSW
Wind: SSW 9 mph , 15 km/h
Temperature: 68°F , 20°C
Dew Point: 50°F , 10°C
Humidity: 53%
2018/05/26 04:00 CWWZ 260400Z AUTO 20008KT 20/10 RMK AO1 SLP080 T02040098 58004
CWPC - Port Colborne(Au, Ontario, Canada
Distance from station: WSW 33mi, 53km
Updated: 05/26/2018 12:00am

 Wind from WSW
Wind: WSW 8 mph , 13 km/h
Temperature: 61°F , 16°C
Dew Point: 48°F , 9°C
Humidity: 63%
2018/05/26 04:00 CWPC 260400Z AUTO 24007KT 16/09 RMK AO1 SLP099 T01560093 58006
 
CXVN - Vineland (au8), Ontario, Canada
Distance from station: W 36mi, 58km
Updated: 05/26/2018 12:00am

 Wind from SSW
Wind: SSW 10 mph , 17 km/h
Temperature: 68°F , 20°C
Dew Point: 50°F , 10°C
Humidity: 53%
2018/05/26 04:00 CXVN 260400Z AUTO 21009KT 20/10 RMK AO1 SLP073 T01960103 58003
CYTZ - Toronto Il Vor, Ontario, Canada
Distance from station: NW 50mi, 81km
Updated: 05/26/2018 12:00am
Clear
Clear
 Wind from SW
Wind: SW 6 mph , 9 km/h
Temperature: 61°F , 16°C
Dew Point: 50°F , 10°C
Humidity: 68%
Barometer: 1007.8 hPa
Clouds: Clear
Visibility: 9 miles , 14 km
2018/05/26 04:00 CYTZ 260400Z AUTO 23005KT 9SM CLR 16/10 A2976 RMK SLP078 DENSITY ALT 500FT
 
CXTO - Toronto City, Ontario, Canada
Distance from station: NW 52mi, 84km
Updated: 05/26/2018 12:00am

 
Temperature: 72°F , 22°C
Dew Point: 43°F , 6°C
Humidity: 36%
2018/05/26 04:00 CXTO 260400Z AUTO 22/06 RMK AO1 SLP078 T02160056 56003
KDKK - Dunkirk, New York, USA
Distance from station: SW 52mi, 84km
Updated: 05/25/2018 11:53pm
Clear
Clear
 Wind from S
Wind: S 5 mph , 7 km/h
Temperature: 64°F , 18°C
Dew Point: 52°F , 11°C
Humidity: 64%
Barometer: 1010.5 hPa
Clouds: Clear
Visibility: 10 miles , 16 km
2018/05/26 03:53 KDKK 260353Z AUTO 18004KT 10SM CLR 18/11 A2984 RMK AO2 SLP100 T01780111 $
 
CYOO - Oshawa, Ontario, Canada
Distance from station: N 56mi, 90km
Updated: 05/26/2018 12:00am
Clear
Clear
 Wind from varies
Wind: varies 2 mph , 4 km/h
Temperature: 63°F , 17°C
Dew Point: 50°F , 10°C
Humidity: 64%
Barometer: 1007.8 hPa
Clouds: Clear
Visibility: 9 miles , 14 km
2018/05/26 04:00 CYOO 260400Z AUTO VRB02KT 9SM CLR 17/10 A2976 RMK SLP077 DENSITY ALT 900FT
CWWB - Burlington Piers, Ontario, Canada
Distance from station: WNW 56mi, 91km
Updated: 05/26/2018 12:00am

 Wind from SW
Wind: SW 5 mph , 7 km/h
Temperature: 72°F , 22°C
Dew Point: 48°F , 9°C
Humidity: 44%
2018/05/26 04:00 CWWB 260400Z AUTO 23004KT 22/09 RMK AO1 SLP080 T02180086 58002
 
CYYZ - Toronto/Pearson, Ontario, Canada
Distance from station: NW 60mi, 96km
Updated: 05/26/2018 12:00am
Clear
Clear
 Wind from WSW
Wind: WSW 13 mph , 20 km/h, Gust: 20 mph , 31 km/h
Temperature: 73°F , 23°C
Dew Point: 46°F , 8°C
Humidity: 38%
Barometer: 1007.8 hPa
Clouds: Clear
Visibility: 15 miles , 24 km
2018/05/26 04:00 CYYZ 260400Z 24011G17KT 15SM SKC 23/08 A2976 RMK SLP075 DENSITY ALT 1800FT
CYKZ - Toronto Buttonvi, Ontario, Canada
Distance from station: NW 62mi, 99km
Updated: 05/26/2018 12:00am
Few Clouds
Few Clouds
 Wind from WSW
Wind: WSW 7 mph , 11 km/h
Temperature: 73°F , 23°C
Dew Point: 46°F , 8°C
Humidity: 38%
Barometer: 1007.8 hPa
Clouds: Few Clouds
Visibility: 15 miles , 24 km
Cloud details: Few Clouds 24000 ft
2018/05/26 04:00 CYKZ 260400Z 24006KT 15SM FEW240 23/08 A2976 RMK CI1 CI TR SLP076 DENSITY ALT 2000FT
 
CXHM - Hamilton Rbg Cs, Ontario, Canada
Distance from station: W 62mi, 100km
Updated: 05/26/2018 12:00am

 Wind from W
Wind: W 5 mph , 7 km/h
Temperature: 70°F , 21°C
Dew Point: 50°F , 10°C
Humidity: 50%
2018/05/26 04:00 CXHM 260400Z AUTO 27004KT 21/10 RMK AO1 SLP076 T02110097 58002
KDSV - Dansville, New York, USA
Distance from station: SE 62mi, 100km
Updated: 05/25/2018 11:54pm
Clear
Clear
 Wind from S
Wind: S 6 mph , 9 km/h
Temperature: 63°F , 17°C
Dew Point: 54°F , 12°C
Humidity: 73%
Barometer: 1010.8 hPa
Clouds: Clear
Visibility: 10 miles , 16 km
2018/05/26 03:54 KDSV 260354Z AUTO 17005KT 10SM CLR 17/12 A2985 RMK AO2 SLP114 T01670122
 
CYHM - Hamilton Airport, Ontario, Canada
Distance from station: W 63mi, 101km
Updated: 05/26/2018 12:00am
Partly cloudy
Partly cloudy
 Wind from SW
Wind: SW 8 mph , 13 km/h
Temperature: 61°F , 16°C
Dew Point: 48°F , 9°C
Humidity: 63%
Barometer: 1009.1 hPa
Clouds: Partly cloudy
Visibility: 15 miles , 24 km
Cloud details: Partly cloudy 25000 ft
2018/05/26 04:00 CYHM 260400Z 22007KT 15SM SCT250 16/09 A2980 RMK CI3 SLP092 DENSITY ALT 1300FT
CWNC - Cobourg (mars), Ontario, Canada
Distance from station: NNE 63mi, 102km
Updated: 05/26/2018 12:00am

 Wind from W
Wind: W 10 mph , 17 km/h
Temperature: 64°F , 18°C
Dew Point: 43°F , 6°C
Humidity: 46%
2018/05/26 04:00 CWNC 260400Z AUTO 28009KT 18/06 RMK AO1 SLP071 T01780063 58002